Terminal Aerodrome Forecast
Issued by NWS

Home | Current Version | Previous Version | Graphics & Text | Print | Product List | Glossary On
Versions: 1 2 3 4 5 6 7 8 9 10 11 12 13 14 15
331
FTUS43 KFGF 141139
TAFBJI
TAF
KBJI 141139Z 1412/1512 19009KT P6SM OVC025
      TEMPO 1414/1418 2SM -SN OVC015
     FM141900 25009KT 3/4SM -SN OVC030
     FM142000 29009KT 1SM -SN OVC035
     FM142200 31011KT P6SM OVC030
     FM150400 32011G19KT P6SM BKN015=

USA.gov is the U.S. government's official web portal to all federal, state and local government web resources and services.